sensor_id;sensor_type;location;lat;lon;timestamp;P1;durP1;ratioP1;P2;durP2;ratioP2
57846;SDS011;43675;50.030;21.952;2023-07-02T00:01:50;48.00;;;43.50;;
57846;SDS011;43675;50.030;21.952;2023-07-02T00:04:17;48.60;;;44.00;;
57846;SDS011;43675;50.030;21.952;2023-07-02T00:06:43;49.20;;;44.70;;
57846;SDS011;43675;50.030;21.952;2023-07-02T00:09:10;48.10;;;43.60;;
57846;SDS011;43675;50.030;21.952;2023-07-02T00:11:37;50.20;;;45.20;;
57846;SDS011;43675;50.030;21.952;2023-07-02T00:14:08;48.50;;;44.00;;
57846;SDS011;43675;50.030;21.952;2023-07-02T00:16:37;49.50;;;44.90;;
57846;SDS011;43675;50.030;21.952;2023-07-02T00:19:04;48.70;;;44.10;;
57846;SDS011;43675;50.030;21.952;2023-07-02T00:21:31;50.80;;;45.90;;
57846;SDS011;43675;50.030;21.952;2023-07-02T00:23:58;50.30;;;45.30;;
57846;SDS011;43675;50.030;21.952;2023-07-02T00:26:25;48.90;;;43.70;;
57846;SDS011;43675;50.030;21.952;2023-07-02T00:28:53;48.20;;;43.80;;
57846;SDS011;43675;50.030;21.952;2023-07-02T00:31:21;47.60;;;43.10;;
57846;SDS011;43675;50.030;21.952;2023-07-02T00:33:49;47.70;;;43.20;;
57846;SDS011;43675;50.030;21.952;2023-07-02T00:36:16;48.60;;;43.70;;
57846;SDS011;43675;50.030;21.952;2023-07-02T00:38:47;49.00;;;44.40;;
57846;SDS011;43675;50.030;21.952;2023-07-02T00:41:15;50.90;;;45.70;;
57846;SDS011;43675;50.030;21.952;2023-07-02T00:43:42;54.30;;;48.50;;
57846;SDS011;43675;50.030;21.952;2023-07-02T00:46:10;52.60;;;47.30;;
57846;SDS011;43675;50.030;21.952;2023-07-02T00:48:39;57.60;;;51.40;;
57846;SDS011;43675;50.030;21.952;2023-07-02T00:51:07;59.20;;;53.00;;
57846;SDS011;43675;50.030;21.952;2023-07-02T00:53:34;58.30;;;52.20;;
57846;SDS011;43675;50.030;21.952;2023-07-02T00:56:01;59.00;;;52.80;;
57846;SDS011;43675;50.030;21.952;2023-07-02T00:58:27;59.70;;;53.20;;
57846;SDS011;43675;50.030;21.952;2023-07-02T01:00:54;56.10;;;50.50;;
57846;SDS011;43675;50.030;21.952;2023-07-02T01:03:20;60.20;;;53.60;;
57846;SDS011;43675;50.030;21.952;2023-07-02T01:05:47;63.60;;;55.10;;
57846;SDS011;43675;50.030;21.952;2023-07-02T01:08:14;65.40;;;56.10;;
57846;SDS011;43675;50.030;21.952;2023-07-02T01:10:40;66.30;;;56.70;;
57846;SDS011;43675;50.030;21.952;2023-07-02T01:13:08;67.20;;;57.60;;
57846;SDS011;43675;50.030;21.952;2023-07-02T01:15:37;66.90;;;58.00;;
57846;SDS011;43675;50.030;21.952;2023-07-02T01:18:05;69.80;;;58.70;;
57846;SDS011;43675;50.030;21.952;2023-07-02T01:20:33;76.20;;;58.00;;
57846;SDS011;43675;50.030;21.952;2023-07-02T01:23:02;75.60;;;58.80;;
57846;SDS011;43675;50.030;21.952;2023-07-02T01:25:30;77.40;;;60.30;;
57846;SDS011;43675;50.030;21.952;2023-07-02T01:27:56;76.90;;;59.50;;
57846;SDS011;43675;50.030;21.952;2023-07-02T01:30:22;80.50;;;60.70;;
57846;SDS011;43675;50.030;21.952;2023-07-02T01:32:49;87.70;;;63.20;;
57846;SDS011;43675;50.030;21.952;2023-07-02T01:35:16;78.40;;;61.30;;
57846;SDS011;43675;50.030;21.952;2023-07-02T01:37:42;73.00;;;60.80;;
57846;SDS011;43675;50.030;21.952;2023-07-02T01:40:09;78.40;;;63.30;;
57846;SDS011;43675;50.030;21.952;2023-07-02T01:42:36;80.50;;;63.50;;
57846;SDS011;43675;50.030;21.952;2023-07-02T01:45:03;72.90;;;62.60;;
57846;SDS011;43675;50.030;21.952;2023-07-02T01:47:30;76.80;;;63.10;;
57846;SDS011;43675;50.030;21.952;2023-07-02T01:49:56;75.40;;;62.10;;
57846;SDS011;43675;50.030;21.952;2023-07-02T01:52:23;78.90;;;61.20;;
57846;SDS011;43675;50.030;21.952;2023-07-02T01:54:49;72.60;;;59.80;;
57846;SDS011;43675;50.030;21.952;2023-07-02T01:57:16;70.70;;;59.30;;
57846;SDS011;43675;50.030;21.952;2023-07-02T01:59:42;69.30;;;58.10;;
57846;SDS011;43675;50.030;21.952;2023-07-02T02:02:09;83.70;;;63.10;;
57846;SDS011;43675;50.030;21.952;2023-07-02T02:04:35;74.80;;;61.30;;
57846;SDS011;43675;50.030;21.952;2023-07-02T02:07:02;76.80;;;60.70;;
57846;SDS011;43675;50.030;21.952;2023-07-02T02:09:29;81.80;;;61.20;;
57846;SDS011;43675;50.030;21.952;2023-07-02T02:11:55;76.40;;;62.10;;
57846;SDS011;43675;50.030;21.952;2023-07-02T02:14:22;79.00;;;61.20;;
57846;SDS011;43675;50.030;21.952;2023-07-02T02:16:48;77.40;;;60.60;;
57846;SDS011;43675;50.030;21.952;2023-07-02T02:19:15;83.20;;;61.40;;
57846;SDS011;43675;50.030;21.952;2023-07-02T02:21:42;84.70;;;63.50;;
57846;SDS011;43675;50.030;21.952;2023-07-02T02:24:09;80.90;;;62.40;;
57846;SDS011;43675;50.030;21.952;2023-07-02T02:26:36;89.50;;;63.10;;
57846;SDS011;43675;50.030;21.952;2023-07-02T02:29:02;91.00;;;66.70;;
57846;SDS011;43675;50.030;21.952;2023-07-02T02:31:30;90.90;;;66.20;;
57846;SDS011;43675;50.030;21.952;2023-07-02T02:33:57;81.40;;;62.00;;
57846;SDS011;43675;50.030;21.952;2023-07-02T02:36:23;70.00;;;58.40;;
57846;SDS011;43675;50.030;21.952;2023-07-02T02:38:50;73.30;;;60.60;;
57846;SDS011;43675;50.030;21.952;2023-07-02T02:41:16;70.90;;;58.20;;
57846;SDS011;43675;50.030;21.952;2023-07-02T02:43:43;70.80;;;57.90;;
57846;SDS011;43675;50.030;21.952;2023-07-02T02:46:11;62.50;;;55.40;;
57846;SDS011;43675;50.030;21.952;2023-07-02T02:48:38;68.00;;;56.40;;
57846;SDS011;43675;50.030;21.952;2023-07-02T02:51:04;62.10;;;54.80;;
57846;SDS011;43675;50.030;21.952;2023-07-02T02:53:30;61.40;;;54.80;;
57846;SDS011;43675;50.030;21.952;2023-07-02T02:55:57;62.70;;;56.00;;
57846;SDS011;43675;50.030;21.952;2023-07-02T02:58:24;60.00;;;53.50;;
57846;SDS011;43675;50.030;21.952;2023-07-02T03:00:50;59.00;;;52.60;;
57846;SDS011;43675;50.030;21.952;2023-07-02T03:03:17;58.30;;;52.20;;
57846;SDS011;43675;50.030;21.952;2023-07-02T03:05:43;59.70;;;53.10;;
57846;SDS011;43675;50.030;21.952;2023-07-02T03:08:10;59.90;;;52.10;;
57846;SDS011;43675;50.030;21.952;2023-07-02T03:10:36;60.30;;;53.60;;
57846;SDS011;43675;50.030;21.952;2023-07-02T03:13:03;62.00;;;55.20;;
57846;SDS011;43675;50.030;21.952;2023-07-02T03:15:29;62.20;;;55.30;;
57846;SDS011;43675;50.030;21.952;2023-07-02T03:17:56;61.00;;;54.20;;
57846;SDS011;43675;50.030;21.952;2023-07-02T03:20:23;65.50;;;57.40;;
57846;SDS011;43675;50.030;21.952;2023-07-02T03:22:50;67.90;;;58.40;;
57846;SDS011;43675;50.030;21.952;2023-07-02T03:25:17;64.70;;;56.80;;
57846;SDS011;43675;50.030;21.952;2023-07-02T03:27:43;64.00;;;56.40;;
57846;SDS011;43675;50.030;21.952;2023-07-02T03:30:10;64.50;;;57.00;;
57846;SDS011;43675;50.030;21.952;2023-07-02T03:32:37;64.30;;;57.20;;
57846;SDS011;43675;50.030;21.952;2023-07-02T03:35:03;63.30;;;56.50;;
57846;SDS011;43675;50.030;21.952;2023-07-02T03:37:30;60.90;;;54.40;;
57846;SDS011;43675;50.030;21.952;2023-07-02T03:39:57;58.20;;;52.10;;
57846;SDS011;43675;50.030;21.952;2023-07-02T03:42:23;57.50;;;51.50;;
57846;SDS011;43675;50.030;21.952;2023-07-02T03:44:50;55.90;;;50.50;;
57846;SDS011;43675;50.030;21.952;2023-07-02T03:47:16;53.10;;;47.70;;
57846;SDS011;43675;50.030;21.952;2023-07-02T03:49:43;48.70;;;44.00;;
57846;SDS011;43675;50.030;21.952;2023-07-02T03:52:09;47.10;;;42.60;;
57846;SDS011;43675;50.030;21.952;2023-07-02T03:54:36;45.10;;;40.50;;
57846;SDS011;43675;50.030;21.952;2023-07-02T03:57:02;44.00;;;40.00;;
57846;SDS011;43675;50.030;21.952;2023-07-02T03:59:29;43.50;;;39.40;;
57846;SDS011;43675;50.030;21.952;2023-07-02T04:01:56;43.30;;;39.00;;
57846;SDS011;43675;50.030;21.952;2023-07-02T04:04:22;41.80;;;38.10;;
57846;SDS011;43675;50.030;21.952;2023-07-02T04:06:49;40.50;;;37.00;;
57846;SDS011;43675;50.030;21.952;2023-07-02T04:09:15;42.60;;;38.10;;
57846;SDS011;43675;50.030;21.952;2023-07-02T04:11:42;42.10;;;37.90;;
57846;SDS011;43675;50.030;21.952;2023-07-02T04:14:08;44.10;;;39.80;;
57846;SDS011;43675;50.030;21.952;2023-07-02T04:16:35;41.50;;;37.40;;
57846;SDS011;43675;50.030;21.952;2023-07-02T04:19:01;39.50;;;35.50;;
57846;SDS011;43675;50.030;21.952;2023-07-02T04:21:28;37.00;;;33.70;;
57846;SDS011;43675;50.030;21.952;2023-07-02T04:23:54;39.20;;;35.30;;
57846;SDS011;43675;50.030;21.952;2023-07-02T04:26:21;36.90;;;33.50;;
57846;SDS011;43675;50.030;21.952;2023-07-02T04:28:47;38.20;;;34.70;;
57846;SDS011;43675;50.030;21.952;2023-07-02T04:31:14;37.30;;;33.80;;
57846;SDS011;43675;50.030;21.952;2023-07-02T04:33:40;36.30;;;32.90;;
57846;SDS011;43675;50.030;21.952;2023-07-02T04:36:07;36.10;;;32.80;;
57846;SDS011;43675;50.030;21.952;2023-07-02T04:38:33;35.50;;;32.30;;
57846;SDS011;43675;50.030;21.952;2023-07-02T04:41:00;35.20;;;31.90;;
57846;SDS011;43675;50.030;21.952;2023-07-02T04:43:27;33.30;;;30.40;;
57846;SDS011;43675;50.030;21.952;2023-07-02T04:45:53;33.80;;;30.70;;
57846;SDS011;43675;50.030;21.952;2023-07-02T04:48:20;32.50;;;29.70;;
57846;SDS011;43675;50.030;21.952;2023-07-02T04:50:46;32.20;;;29.40;;
57846;SDS011;43675;50.030;21.952;2023-07-02T04:53:13;31.00;;;28.40;;
57846;SDS011;43675;50.030;21.952;2023-07-02T04:55:39;31.90;;;29.00;;
57846;SDS011;43675;50.030;21.952;2023-07-02T04:58:06;32.60;;;29.70;;
57846;SDS011;43675;50.030;21.952;2023-07-02T05:00:32;31.00;;;28.20;;
57846;SDS011;43675;50.030;21.952;2023-07-02T05:02:59;31.40;;;28.50;;
57846;SDS011;43675;50.030;21.952;2023-07-02T05:05:25;30.80;;;28.00;;
57846;SDS011;43675;50.030;21.952;2023-07-02T05:07:53;29.80;;;27.20;;
57846;SDS011;43675;50.030;21.952;2023-07-02T05:10:20;29.60;;;27.00;;
57846;SDS011;43675;50.030;21.952;2023-07-02T05:12:47;28.90;;;26.30;;
57846;SDS011;43675;50.030;21.952;2023-07-02T05:15:13;29.70;;;27.30;;
57846;SDS011;43675;50.030;21.952;2023-07-02T05:17:40;28.20;;;25.90;;
57846;SDS011;43675;50.030;21.952;2023-07-02T05:20:07;28.90;;;26.40;;
57846;SDS011;43675;50.030;21.952;2023-07-02T05:22:34;29.70;;;26.90;;
57846;SDS011;43675;50.030;21.952;2023-07-02T05:25:00;28.60;;;26.10;;
57846;SDS011;43675;50.030;21.952;2023-07-02T05:27:27;27.30;;;25.00;;
57846;SDS011;43675;50.030;21.952;2023-07-02T05:29:54;28.80;;;26.50;;
57846;SDS011;43675;50.030;21.952;2023-07-02T05:32:20;28.20;;;25.80;;
57846;SDS011;43675;50.030;21.952;2023-07-02T05:34:47;28.50;;;25.80;;
57846;SDS011;43675;50.030;21.952;2023-07-02T05:37:13;27.50;;;25.20;;
57846;SDS011;43675;50.030;21.952;2023-07-02T05:39:40;28.40;;;26.00;;
57846;SDS011;43675;50.030;21.952;2023-07-02T05:42:06;27.30;;;25.10;;
57846;SDS011;43675;50.030;21.952;2023-07-02T05:44:33;26.40;;;24.20;;
57846;SDS011;43675;50.030;21.952;2023-07-02T05:46:59;27.10;;;24.80;;
57846;SDS011;43675;50.030;21.952;2023-07-02T05:49:26;26.80;;;24.30;;
57846;SDS011;43675;50.030;21.952;2023-07-02T05:51:52;26.60;;;24.20;;
57846;SDS011;43675;50.030;21.952;2023-07-02T05:54:19;25.90;;;23.70;;
57846;SDS011;43675;50.030;21.952;2023-07-02T05:56:45;26.30;;;24.00;;
57846;SDS011;43675;50.030;21.952;2023-07-02T05:59:12;24.80;;;22.70;;
57846;SDS011;43675;50.030;21.952;2023-07-02T06:01:38;24.70;;;22.70;;
57846;SDS011;43675;50.030;21.952;2023-07-02T06:04:05;24.20;;;22.20;;
57846;SDS011;43675;50.030;21.952;2023-07-02T06:06:31;24.90;;;23.00;;
57846;SDS011;43675;50.030;21.952;2023-07-02T06:08:58;24.70;;;22.80;;
57846;SDS011;43675;50.030;21.952;2023-07-02T06:11:24;25.60;;;23.60;;
57846;SDS011;43675;50.030;21.952;2023-07-02T06:13:51;26.00;;;23.90;;
57846;SDS011;43675;50.030;21.952;2023-07-02T06:16:17;26.30;;;24.10;;
57846;SDS011;43675;50.030;21.952;2023-07-02T06:18:44;27.80;;;25.20;;
57846;SDS011;43675;50.030;21.952;2023-07-02T06:21:10;25.90;;;23.70;;
57846;SDS011;43675;50.030;21.952;2023-07-02T06:23:41;26.70;;;24.60;;
57846;SDS011;43675;50.030;21.952;2023-07-02T06:26:08;26.80;;;24.50;;
57846;SDS011;43675;50.030;21.952;2023-07-02T06:28:35;25.90;;;23.80;;
57846;SDS011;43675;50.030;21.952;2023-07-02T06:31:01;26.70;;;24.40;;
57846;SDS011;43675;50.030;21.952;2023-07-02T06:33:28;26.60;;;24.50;;
57846;SDS011;43675;50.030;21.952;2023-07-02T06:35:55;27.20;;;24.90;;
57846;SDS011;43675;50.030;21.952;2023-07-02T06:38:21;27.20;;;25.20;;
57846;SDS011;43675;50.030;21.952;2023-07-02T06:40:48;26.70;;;24.40;;
57846;SDS011;43675;50.030;21.952;2023-07-02T06:43:14;26.10;;;23.80;;
57846;SDS011;43675;50.030;21.952;2023-07-02T06:45:41;26.40;;;24.10;;
57846;SDS011;43675;50.030;21.952;2023-07-02T06:48:08;26.60;;;24.30;;
57846;SDS011;43675;50.030;21.952;2023-07-02T06:50:34;26.60;;;24.50;;
57846;SDS011;43675;50.030;21.952;2023-07-02T06:53:01;27.10;;;24.80;;
57846;SDS011;43675;50.030;21.952;2023-07-02T06:55:27;26.90;;;24.60;;
57846;SDS011;43675;50.030;21.952;2023-07-02T06:57:54;26.20;;;24.10;;
57846;SDS011;43675;50.030;21.952;2023-07-02T07:00:20;25.50;;;23.40;;
57846;SDS011;43675;50.030;21.952;2023-07-02T07:02:47;25.20;;;23.20;;
57846;SDS011;43675;50.030;21.952;2023-07-02T07:05:14;25.70;;;23.60;;
57846;SDS011;43675;50.030;21.952;2023-07-02T07:07:40;26.40;;;24.10;;
57846;SDS011;43675;50.030;21.952;2023-07-02T07:10:07;25.20;;;23.20;;
57846;SDS011;43675;50.030;21.952;2023-07-02T07:12:34;26.70;;;24.40;;
57846;SDS011;43675;50.030;21.952;2023-07-02T07:15:00;26.30;;;24.20;;
57846;SDS011;43675;50.030;21.952;2023-07-02T07:17:27;26.00;;;23.70;;
57846;SDS011;43675;50.030;21.952;2023-07-02T07:19:54;26.50;;;24.20;;
57846;SDS011;43675;50.030;21.952;2023-07-02T07:22:20;26.20;;;23.90;;
57846;SDS011;43675;50.030;21.952;2023-07-02T07:24:47;25.70;;;23.50;;
57846;SDS011;43675;50.030;21.952;2023-07-02T07:27:13;26.90;;;24.90;;
57846;SDS011;43675;50.030;21.952;2023-07-02T07:29:40;26.10;;;24.00;;
57846;SDS011;43675;50.030;21.952;2023-07-02T07:32:06;26.30;;;24.10;;
57846;SDS011;43675;50.030;21.952;2023-07-02T07:34:33;24.30;;;22.50;;
57846;SDS011;43675;50.030;21.952;2023-07-02T07:36:59;24.70;;;22.60;;
57846;SDS011;43675;50.030;21.952;2023-07-02T07:39:26;22.10;;;20.20;;
57846;SDS011;43675;50.030;21.952;2023-07-02T07:41:52;21.70;;;19.90;;
57846;SDS011;43675;50.030;21.952;2023-07-02T07:44:19;20.90;;;19.10;;
57846;SDS011;43675;50.030;21.952;2023-07-02T07:46:45;22.60;;;20.80;;
57846;SDS011;43675;50.030;21.952;2023-07-02T07:49:12;21.80;;;20.10;;
57846;SDS011;43675;50.030;21.952;2023-07-02T07:51:39;22.40;;;20.40;;
57846;SDS011;43675;50.030;21.952;2023-07-02T07:54:06;22.80;;;20.90;;
57846;SDS011;43675;50.030;21.952;2023-07-02T07:56:32;21.50;;;19.80;;
57846;SDS011;43675;50.030;21.952;2023-07-02T07:58:59;22.40;;;20.60;;
57846;SDS011;43675;50.030;21.952;2023-07-02T08:01:26;22.70;;;20.80;;
57846;SDS011;43675;50.030;21.952;2023-07-02T08:03:52;21.80;;;20.00;;
57846;SDS011;43675;50.030;21.952;2023-07-02T08:06:19;22.50;;;20.70;;
57846;SDS011;43675;50.030;21.952;2023-07-02T08:08:45;23.50;;;21.10;;
57846;SDS011;43675;50.030;21.952;2023-07-02T08:11:12;23.00;;;21.00;;
57846;SDS011;43675;50.030;21.952;2023-07-02T08:13:38;23.30;;;21.40;;
57846;SDS011;43675;50.030;21.952;2023-07-02T08:16:05;21.80;;;20.00;;
57846;SDS011;43675;50.030;21.952;2023-07-02T08:18:31;21.20;;;19.40;;
57846;SDS011;43675;50.030;21.952;2023-07-02T08:20:58;22.10;;;20.10;;
57846;SDS011;43675;50.030;21.952;2023-07-02T08:23:24;22.20;;;20.40;;
57846;SDS011;43675;50.030;21.952;2023-07-02T08:25:51;22.70;;;20.50;;
57846;SDS011;43675;50.030;21.952;2023-07-02T08:28:18;22.70;;;20.90;;
57846;SDS011;43675;50.030;21.952;2023-07-02T08:30:44;22.70;;;20.70;;
57846;SDS011;43675;50.030;21.952;2023-07-02T08:33:11;22.00;;;20.30;;
57846;SDS011;43675;50.030;21.952;2023-07-02T08:35:37;22.30;;;20.40;;
57846;SDS011;43675;50.030;21.952;2023-07-02T08:38:04;22.10;;;20.20;;
57846;SDS011;43675;50.030;21.952;2023-07-02T08:40:30;22.20;;;20.10;;
57846;SDS011;43675;50.030;21.952;2023-07-02T08:42:57;22.00;;;20.10;;
57846;SDS011;43675;50.030;21.952;2023-07-02T08:45:25;22.00;;;20.00;;
57846;SDS011;43675;50.030;21.952;2023-07-02T08:47:51;21.30;;;19.30;;
57846;SDS011;43675;50.030;21.952;2023-07-02T08:50:18;21.00;;;19.30;;
57846;SDS011;43675;50.030;21.952;2023-07-02T08:52:45;20.90;;;19.10;;
57846;SDS011;43675;50.030;21.952;2023-07-02T08:55:12;20.50;;;18.90;;
57846;SDS011;43675;50.030;21.952;2023-07-02T08:57:38;21.30;;;19.60;;
57846;SDS011;43675;50.030;21.952;2023-07-02T09:00:08;21.30;;;19.50;;
57846;SDS011;43675;50.030;21.952;2023-07-02T09:02:35;21.20;;;19.40;;
57846;SDS011;43675;50.030;21.952;2023-07-02T09:05:02;20.40;;;18.60;;
57846;SDS011;43675;50.030;21.952;2023-07-02T09:07:30;21.40;;;19.70;;
57846;SDS011;43675;50.030;21.952;2023-07-02T09:09:57;21.40;;;19.30;;
57846;SDS011;43675;50.030;21.952;2023-07-02T09:14:54;20.60;;;19.00;;
57846;SDS011;43675;50.030;21.952;2023-07-02T09:17:37;20.10;;;18.50;;
57846;SDS011;43675;50.030;21.952;2023-07-02T09:20:05;20.30;;;18.50;;
57846;SDS011;43675;50.030;21.952;2023-07-02T09:22:33;20.20;;;18.50;;
57846;SDS011;43675;50.030;21.952;2023-07-02T09:25:00;21.40;;;19.70;;
57846;SDS011;43675;50.030;21.952;2023-07-02T09:27:37;22.00;;;20.20;;
57846;SDS011;43675;50.030;21.952;2023-07-02T09:30:11;20.40;;;18.80;;
57846;SDS011;43675;50.030;21.952;2023-07-02T09:32:39;20.80;;;19.20;;
57846;SDS011;43675;50.030;21.952;2023-07-02T09:35:06;21.10;;;19.50;;
57846;SDS011;43675;50.030;21.952;2023-07-02T09:37:33;21.00;;;19.40;;
57846;SDS011;43675;50.030;21.952;2023-07-02T09:40:00;21.30;;;19.60;;
57846;SDS011;43675;50.030;21.952;2023-07-02T09:42:28;20.60;;;19.10;;
57846;SDS011;43675;50.030;21.952;2023-07-02T09:44:55;21.10;;;19.40;;
57846;SDS011;43675;50.030;21.952;2023-07-02T09:47:23;21.50;;;19.70;;
57846;SDS011;43675;50.030;21.952;2023-07-02T09:52:26;21.20;;;19.60;;
57846;SDS011;43675;50.030;21.952;2023-07-02T09:54:53;21.80;;;20.00;;
57846;SDS011;43675;50.030;21.952;2023-07-02T09:57:19;20.30;;;18.70;;
57846;SDS011;43675;50.030;21.952;2023-07-02T09:59:46;21.20;;;19.20;;
57846;SDS011;43675;50.030;21.952;2023-07-02T10:02:13;21.90;;;20.10;;
57846;SDS011;43675;50.030;21.952;2023-07-02T10:04:40;21.30;;;19.50;;
57846;SDS011;43675;50.030;21.952;2023-07-02T10:07:08;21.50;;;19.80;;
57846;SDS011;43675;50.030;21.952;2023-07-02T10:09:36;21.30;;;19.50;;
57846;SDS011;43675;50.030;21.952;2023-07-02T10:12:21;22.70;;;20.70;;
57846;SDS011;43675;50.030;21.952;2023-07-02T10:14:49;21.80;;;20.00;;
57846;SDS011;43675;50.030;21.952;2023-07-02T10:19:58;21.20;;;19.50;;
57846;SDS011;43675;50.030;21.952;2023-07-02T10:22:26;20.10;;;18.40;;
57846;SDS011;43675;50.030;21.952;2023-07-02T10:24:54;19.50;;;17.90;;
57846;SDS011;43675;50.030;21.952;2023-07-02T10:27:37;19.50;;;17.90;;
57846;SDS011;43675;50.030;21.952;2023-07-02T10:32:36;20.60;;;18.60;;
57846;SDS011;43675;50.030;21.952;2023-07-02T10:35:13;19.80;;;18.10;;
57846;SDS011;43675;50.030;21.952;2023-07-02T10:37:39;20.60;;;18.70;;
57846;SDS011;43675;50.030;21.952;2023-07-02T10:40:06;20.30;;;18.50;;
57846;SDS011;43675;50.030;21.952;2023-07-02T10:42:55;20.60;;;19.00;;
57846;SDS011;43675;50.030;21.952;2023-07-02T10:45:30;19.70;;;18.10;;
57846;SDS011;43675;50.030;21.952;2023-07-02T10:47:58;20.30;;;18.50;;
57846;SDS011;43675;50.030;21.952;2023-07-02T10:50:26;21.30;;;19.50;;
57846;SDS011;43675;50.030;21.952;2023-07-02T10:52:53;20.10;;;18.60;;
57846;SDS011;43675;50.030;21.952;2023-07-02T10:55:20;21.10;;;19.30;;
57846;SDS011;43675;50.030;21.952;2023-07-02T10:57:48;20.30;;;18.60;;
57846;SDS011;43675;50.030;21.952;2023-07-02T11:00:15;20.40;;;18.80;;
57846;SDS011;43675;50.030;21.952;2023-07-02T11:02:42;22.40;;;18.50;;
57846;SDS011;43675;50.030;21.952;2023-07-02T11:05:10;20.20;;;18.60;;
57846;SDS011;43675;50.030;21.952;2023-07-02T11:07:38;21.00;;;18.90;;
57846;SDS011;43675;50.030;21.952;2023-07-02T11:10:08;19.80;;;18.40;;
57846;SDS011;43675;50.030;21.952;2023-07-02T11:12:36;20.20;;;18.50;;
57846;SDS011;43675;50.030;21.952;2023-07-02T11:15:09;19.40;;;17.60;;
57846;SDS011;43675;50.030;21.952;2023-07-02T11:17:37;19.70;;;18.00;;
57846;SDS011;43675;50.030;21.952;2023-07-02T11:20:04;19.80;;;18.20;;
57846;SDS011;43675;50.030;21.952;2023-07-02T11:22:32;20.30;;;18.70;;
57846;SDS011;43675;50.030;21.952;2023-07-02T11:25:12;20.30;;;18.70;;
57846;SDS011;43675;50.030;21.952;2023-07-02T11:27:40;20.20;;;18.50;;
57846;SDS011;43675;50.030;21.952;2023-07-02T11:30:07;20.10;;;18.30;;
57846;SDS011;43675;50.030;21.952;2023-07-02T11:32:48;20.30;;;18.60;;
57846;SDS011;43675;50.030;21.952;2023-07-02T11:35:15;20.80;;;18.60;;
57846;SDS011;43675;50.030;21.952;2023-07-02T11:37:42;19.00;;;17.40;;
57846;SDS011;43675;50.030;21.952;2023-07-02T11:40:09;19.50;;;17.80;;
57846;SDS011;43675;50.030;21.952;2023-07-02T11:42:36;18.90;;;17.30;;
57846;SDS011;43675;50.030;21.952;2023-07-02T11:45:03;19.70;;;18.10;;
57846;SDS011;43675;50.030;21.952;2023-07-02T11:47:30;18.90;;;17.30;;
57846;SDS011;43675;50.030;21.952;2023-07-02T11:49:56;18.90;;;17.50;;
57846;SDS011;43675;50.030;21.952;2023-07-02T11:52:23;19.10;;;17.60;;
57846;SDS011;43675;50.030;21.952;2023-07-02T11:54:49;19.40;;;17.80;;
57846;SDS011;43675;50.030;21.952;2023-07-02T11:57:16;19.20;;;17.70;;
57846;SDS011;43675;50.030;21.952;2023-07-02T11:59:42;19.10;;;17.40;;
57846;SDS011;43675;50.030;21.952;2023-07-02T12:02:09;18.70;;;17.20;;
57846;SDS011;43675;50.030;21.952;2023-07-02T12:04:35;19.10;;;17.30;;
57846;SDS011;43675;50.030;21.952;2023-07-02T12:07:02;19.20;;;17.30;;
57846;SDS011;43675;50.030;21.952;2023-07-02T12:09:29;20.30;;;18.20;;
57846;SDS011;43675;50.030;21.952;2023-07-02T12:11:56;19.60;;;17.70;;
57846;SDS011;43675;50.030;21.952;2023-07-02T12:14:22;18.80;;;17.40;;
57846;SDS011;43675;50.030;21.952;2023-07-02T12:16:49;18.90;;;17.50;;
57846;SDS011;43675;50.030;21.952;2023-07-02T12:19:15;19.90;;;18.30;;
57846;SDS011;43675;50.030;21.952;2023-07-02T12:21:42;18.50;;;16.90;;
57846;SDS011;43675;50.030;21.952;2023-07-02T12:24:08;18.50;;;16.90;;
57846;SDS011;43675;50.030;21.952;2023-07-02T12:26:35;18.20;;;16.80;;
57846;SDS011;43675;50.030;21.952;2023-07-02T12:29:03;18.00;;;16.70;;
57846;SDS011;43675;50.030;21.952;2023-07-02T12:31:30;18.50;;;16.90;;
57846;SDS011;43675;50.030;21.952;2023-07-02T12:33:57;18.30;;;16.70;;
57846;SDS011;43675;50.030;21.952;2023-07-02T12:36:23;18.50;;;17.00;;
57846;SDS011;43675;50.030;21.952;2023-07-02T12:38:50;19.60;;;17.70;;
57846;SDS011;43675;50.030;21.952;2023-07-02T12:41:17;18.60;;;16.90;;
57846;SDS011;43675;50.030;21.952;2023-07-02T12:43:43;18.40;;;17.00;;
57846;SDS011;43675;50.030;21.952;2023-07-02T12:46:10;19.30;;;17.80;;
57846;SDS011;43675;50.030;21.952;2023-07-02T12:48:36;18.30;;;17.00;;
57846;SDS011;43675;50.030;21.952;2023-07-02T12:51:03;19.30;;;17.60;;
57846;SDS011;43675;50.030;21.952;2023-07-02T12:53:29;19.60;;;17.90;;
57846;SDS011;43675;50.030;21.952;2023-07-02T12:55:56;19.30;;;17.70;;
57846;SDS011;43675;50.030;21.952;2023-07-02T12:58:22;18.70;;;17.30;;
57846;SDS011;43675;50.030;21.952;2023-07-02T13:00:49;19.60;;;18.10;;
57846;SDS011;43675;50.030;21.952;2023-07-02T13:03:18;19.40;;;17.60;;
57846;SDS011;43675;50.030;21.952;2023-07-02T13:05:44;19.10;;;17.30;;
57846;SDS011;43675;50.030;21.952;2023-07-02T13:08:11;18.30;;;16.70;;
57846;SDS011;43675;50.030;21.952;2023-07-02T13:10:37;18.60;;;17.00;;
57846;SDS011;43675;50.030;21.952;2023-07-02T13:13:04;18.40;;;17.10;;
57846;SDS011;43675;50.030;21.952;2023-07-02T13:15:31;19.10;;;17.40;;
57846;SDS011;43675;50.030;21.952;2023-07-02T13:17:58;18.90;;;17.50;;
57846;SDS011;43675;50.030;21.952;2023-07-02T13:20:24;18.50;;;17.20;;
57846;SDS011;43675;50.030;21.952;2023-07-02T13:22:51;18.50;;;17.00;;
57846;SDS011;43675;50.030;21.952;2023-07-02T13:25:17;18.20;;;16.70;;
57846;SDS011;43675;50.030;21.952;2023-07-02T13:27:44;19.20;;;17.70;;
57846;SDS011;43675;50.030;21.952;2023-07-02T13:30:10;18.00;;;16.60;;
57846;SDS011;43675;50.030;21.952;2023-07-02T13:32:37;19.20;;;17.60;;
57846;SDS011;43675;50.030;21.952;2023-07-02T13:35:04;19.30;;;17.70;;
57846;SDS011;43675;50.030;21.952;2023-07-02T13:37:31;18.10;;;16.60;;
57846;SDS011;43675;50.030;21.952;2023-07-02T13:39:58;18.40;;;17.10;;
57846;SDS011;43675;50.030;21.952;2023-07-02T13:42:24;17.80;;;16.50;;
57846;SDS011;43675;50.030;21.952;2023-07-02T13:44:51;18.30;;;16.70;;
57846;SDS011;43675;50.030;21.952;2023-07-02T13:47:17;17.40;;;16.10;;
57846;SDS011;43675;50.030;21.952;2023-07-02T13:49:44;16.90;;;15.60;;
57846;SDS011;43675;50.030;21.952;2023-07-02T13:52:10;17.50;;;16.20;;
57846;SDS011;43675;50.030;21.952;2023-07-02T13:54:37;19.20;;;17.70;;
57846;SDS011;43675;50.030;21.952;2023-07-02T13:57:03;18.20;;;16.70;;
57846;SDS011;43675;50.030;21.952;2023-07-02T13:59:30;17.50;;;16.00;;
57846;SDS011;43675;50.030;21.952;2023-07-02T14:01:57;17.90;;;16.20;;
57846;SDS011;43675;50.030;21.952;2023-07-02T14:04:23;17.80;;;16.50;;
57846;SDS011;43675;50.030;21.952;2023-07-02T14:06:50;18.00;;;16.60;;
57846;SDS011;43675;50.030;21.952;2023-07-02T14:09:16;17.50;;;16.00;;
57846;SDS011;43675;50.030;21.952;2023-07-02T14:11:43;17.30;;;16.00;;
57846;SDS011;43675;50.030;21.952;2023-07-02T14:14:10;18.40;;;17.00;;
57846;SDS011;43675;50.030;21.952;2023-07-02T14:16:37;17.80;;;16.40;;
57846;SDS011;43675;50.030;21.952;2023-07-02T14:19:03;17.90;;;16.40;;